Wilmington International Airport
KILM : now visible

Airfield :











YOU CAN JOIN US ON...

 
LOGIN :

Register | Disclaimer

   EN    FR    IT 

 









Legend :    VFR   Marginal VFR   IFR   Intensive IFR   Very Intensive IFR
Visi :
Ceiling :
>= 8 km
>= 3000ft
5 to 8 km
1000 to 3000 ft
1500m to 5 km
500 to 1000 ft
800 to 1500m
200 to 500 ft
< 800m
< 200 ft
Symbols :   Thunderstorms  Fog  Heavy snow  Heavy precipitations  Wind > 20 kt







- Airport Elevation : 32 ft
- IATA code : ILM


KILM - Wilmington International

CURRENT METAR :
  • 191210Z 17015G26KT 10SM SCT026 BKN032 OVC075 23/19 A2986 RMK AO2 PK WND 17026/1204 T02330194

EXPIRED METARs :
  • 191153Z 17016G24KT 10SM BKN026 OVC032 23/19 A2986 RMK AO2 SLP112 T02330194 10233 20217 53001
  • 191106Z 17015G22KT 10SM BKN025 OVC030 22/19 A2986 RMK AO2 T02220189
  • 191053Z 17010G20KT 10SM FEW023 BKN030 OVC060 22/19 A2985 RMK AO2 SLP108 T02220189
  • 191015Z 17015G24KT 10SM BKN030 BKN060 22/19 A2983 RMK AO2 T02220189
  • 190953Z AUTO 17011G19KT 10SM SCT024 OVC029 22/19 A2984 RMK AO2 SLP104 T02170189

TAF KILM
Valid from the 19 at 12:00 until the 20 at 12:00 UTC


191120Z 1912/2012 17013G19KT P6SM VCSH SCT025 BKN045 OVC120
FM191400 17022G33KT P6SM -SHRA BKN025 OVC040
TEMPO 1915/1919 VRB25G40KT 3SM TSRA BKN015CB
FM192000 18025G37KT P6SM -SHRA VCTS SCT015CB OVC025
FM192300 19025G35KT 3SM TSRA BKN012CB OVC025
TEMPO 1923/2003 VRB30G50KT 1SM TSRA BKN015CB
FM200400 20017G27KT 6SM -SHRA OVC020
KZDC FIR / North America



MET'MAP, your aeronautical weather chart ! - Copyright ORBIFLY December 2007 - Disclaimer

ORBIFLY MET'MAP TEAM :

Programming & Development : Alexandra Zaïnal
Concept & Development : Baudouin d'Aumeries
Co-Development & Prog : Marc-Olivier Méhu
Technical & hardware support : Manuel Goepfert

Contact : metmap@orbifly.com




SOURCES & CREDITS :

   NOAA       Earth
Advisory